Time;durP1;ratioP1;P1;durP2;ratioP2;P2;SDS_P1;SDS_P2;PMS_P1;PMS_P2;Temp;Humidity;BMP_temperature;BMP_pressure;BME280_temperature;BME280_humidity;BME280_pressure;Samples;Min_cycle;Max_cycle;Signal;HPM_P1;HPM_P2
2022/04/19 00:00:38;;;;;;;7.75;2.70;;;8.90;99.90;;;;;;4954535;28;20054;-81
2022/04/19 00:03:05;;;;;;;2.83;1.98;;;8.90;99.90;;;;;;4971960;28;20027;-80
2022/04/19 00:05:32;;;;;;;5.57;1.75;;;9.00;99.90;;;;;;4972777;28;20135;-81
2022/04/19 00:08:03;;;;;;;4.55;1.67;;;9.00;99.90;;;;;;4979559;23;20511;-77
2022/04/19 00:10:29;;;;;;;4.78;2.42;;;9.00;99.90;;;;;;4971978;28;20443;-77
2022/04/19 00:12:59;;;;;;;3.13;1.80;;;9.00;99.90;;;;;;4973518;28;20027;-77
2022/04/19 00:15:28;;;;;;;3.88;1.88;;;9.00;99.90;;;;;;4972841;28;20030;-77
2022/04/19 00:17:55;;;;;;;2.35;1.40;;;8.90;99.90;;;;;;4969332;28;20027;-77
2022/04/19 00:20:21;;;;;;;4.32;1.42;;;8.90;99.90;;;;;;4967524;28;20027;-77
2022/04/19 00:22:49;;;;;;;3.92;1.67;;;9.00;99.90;;;;;;4972666;28;20018;-77
2022/04/19 00:25:15;;;;;;;5.65;1.85;;;9.00;99.90;;;;;;4972709;28;20023;-77
2022/04/19 00:27:41;;;;;;;6.38;1.90;;;8.90;99.90;;;;;;4973234;28;20057;-76
2022/04/19 00:30:07;;;;;;;3.92;1.40;;;9.00;99.90;;;;;;4971489;28;20023;-77
2022/04/19 00:32:34;;;;;;;5.20;1.90;;;9.00;99.90;;;;;;4972546;28;20049;-78
2022/04/19 00:35:10;;;;;;;5.95;1.50;;;9.00;99.90;;;;;;4972818;28;20074;-77
2022/04/19 00:37:39;;;;;;;2.47;1.40;;;9.00;99.90;;;;;;4961273;28;20062;-77
2022/04/19 00:40:07;;;;;;;3.03;1.48;;;9.00;99.90;;;;;;4972443;28;20411;-77
2022/04/19 00:42:33;;;;;;;4.00;1.40;;;9.00;99.90;;;;;;4972260;28;20082;-77
2022/04/19 00:45:02;;;;;;;6.18;1.65;;;9.00;99.90;;;;;;4972269;28;20495;-77
2022/04/19 00:47:32;;;;;;;3.80;1.20;;;9.00;99.90;;;;;;4972318;28;20019;-77
2022/04/19 00:49:58;;;;;;;2.17;1.10;;;8.90;99.90;;;;;;4965009;28;20472;-77
2022/04/19 00:52:24;;;;;;;4.80;1.60;;;8.90;99.90;;;;;;4971947;28;20027;-77
2022/04/19 00:54:50;;;;;;;3.60;1.25;;;8.90;99.90;;;;;;4955179;28;20093;-76
2022/04/19 00:57:16;;;;;;;4.72;1.17;;;8.80;99.90;;;;;;4971950;28;20023;-76
2022/04/19 00:59:44;;;;;;;5.57;1.80;;;8.70;99.90;;;;;;4972022;28;20031;-77
2022/04/19 01:02:09;;;;;;;3.78;1.60;;;8.70;99.90;;;;;;4972471;28;20023;-77
2022/04/19 01:04:35;;;;;;;2.65;1.73;;;8.60;99.90;;;;;;4972262;28;20041;-77
2022/04/19 01:07:01;;;;;;;4.07;1.85;;;8.60;99.90;;;;;;4984012;23;20065;-80
2022/04/19 01:09:27;;;;;;;6.00;1.42;;;8.40;99.90;;;;;;4954926;28;20097;-81
2022/04/19 01:14:39;;;;;;;2.42;1.35;;;8.40;99.90;;;;;;4971527;28;20077;-81
2022/04/19 01:17:08;;;;;;;2.20;1.50;;;8.40;99.90;;;;;;4954360;28;20027;-80
2022/04/19 01:19:40;;;;;;;4.70;1.48;;;8.30;99.90;;;;;;4954795;28;20029;-81
2022/04/19 01:22:06;;;;;;;5.85;2.00;;;8.30;99.90;;;;;;4971934;28;20030;-80
2022/04/19 01:24:32;;;;;;;3.65;1.30;;;8.30;99.90;;;;;;4971675;28;20103;-80
2022/04/19 01:26:58;;;;;;;3.90;1.45;;;8.30;99.90;;;;;;4971653;28;20011;-80
2022/04/19 01:29:25;;;;;;;4.20;1.50;;;8.30;99.90;;;;;;4971668;28;20503;-81
2022/04/19 01:31:52;;;;;;;3.08;1.70;;;8.40;99.90;;;;;;4971589;28;20088;-80
2022/04/19 01:34:19;;;;;;;2.95;1.40;;;8.50;99.90;;;;;;4971816;28;20081;-80
2022/04/19 01:36:45;;;;;;;4.72;1.45;;;8.40;99.90;;;;;;4971750;28;20019;-80
2022/04/19 01:39:12;;;;;;;8.98;1.60;;;8.40;99.90;;;;;;4954219;28;20065;-80
2022/04/19 01:41:39;;;;;;;3.40;1.58;;;8.40;99.90;;;;;;4954323;28;20066;-80
2022/04/19 01:44:06;;;;;;;3.85;1.88;;;8.30;99.90;;;;;;4971852;28;20576;-80
2022/04/19 01:46:33;;;;;;;2.63;1.30;;;8.20;99.90;;;;;;4970683;28;20399;-80
2022/04/19 01:48:59;;;;;;;5.30;1.25;;;8.20;99.90;;;;;;4971429;28;20026;-80
2022/04/19 01:51:25;;;;;;;4.88;1.38;;;8.20;99.90;;;;;;4968818;28;20518;-80
2022/04/19 01:53:51;;;;;;;5.88;2.15;;;8.20;99.90;;;;;;4951412;28;20030;-80
2022/04/19 01:56:17;;;;;;;3.58;1.27;;;8.30;99.90;;;;;;4968909;28;20391;-80
2022/04/19 01:58:44;;;;;;;8.90;1.98;;;8.30;99.90;;;;;;4968939;28;20019;-80
2022/04/19 02:01:10;;;;;;;5.10;2.20;;;8.30;99.90;;;;;;4969352;28;20388;-80
2022/04/19 02:03:36;;;;;;;4.72;1.55;;;8.30;99.90;;;;;;4971002;28;20102;-80
2022/04/19 02:08:35;;;;;;;6.32;1.73;;;8.30;99.90;;;;;;4949836;28;20043;-75
2022/04/19 02:11:00;;;;;;;3.15;1.55;;;8.30;99.90;;;;;;4952440;29;20027;-75
2022/04/19 02:13:31;;;;;;;4.90;2.33;;;8.30;99.90;;;;;;4952076;29;20028;-76
2022/04/19 02:15:58;;;;;;;6.55;1.70;;;8.30;99.90;;;;;;4951939;29;20022;-76
2022/04/19 02:18:25;;;;;;;5.68;1.70;;;8.40;99.90;;;;;;4952255;28;20026;-74
2022/04/19 02:20:50;;;;;;;9.18;2.35;;;8.50;99.90;;;;;;4951985;28;20016;-76
2022/04/19 02:23:16;;;;;;;4.88;1.40;;;8.50;99.90;;;;;;4952094;28;20034;-76
2022/04/19 02:25:42;;;;;;;3.85;1.63;;;8.50;99.90;;;;;;4952597;28;20019;-76
2022/04/19 02:28:10;;;;;;;3.72;1.30;;;8.60;99.90;;;;;;4955382;28;20011;-76
2022/04/19 02:30:36;;;;;;;2.30;1.17;;;8.80;99.90;;;;;;4955296;28;20029;-73
2022/04/19 02:33:02;;;;;;;2.13;1.20;;;8.80;99.90;;;;;;4955864;29;20376;-74
2022/04/19 02:35:28;;;;;;;3.10;1.52;;;8.80;99.90;;;;;;4955407;28;20082;-74
2022/04/19 02:37:57;;;;;;;4.72;1.40;;;8.80;99.90;;;;;;4955043;28;20058;-73
2022/04/19 02:40:24;;;;;;;4.93;1.90;;;8.80;99.90;;;;;;4955045;29;20543;-75
2022/04/19 02:42:54;;;;;;;1.50;1.15;;;8.70;99.90;;;;;;4955506;28;20042;-76
2022/04/19 02:45:21;;;;;;;8.82;1.60;;;8.70;99.90;;;;;;4955303;28;20015;-75
2022/04/19 02:47:48;;;;;;;3.92;1.63;;;8.70;99.90;;;;;;4955102;28;20051;-76
2022/04/19 02:50:16;;;;;;;6.10;1.95;;;8.70;99.90;;;;;;4954262;29;20031;-76
2022/04/19 02:52:42;;;;;;;7.05;1.90;;;8.60;99.90;;;;;;4954772;29;20016;-76
2022/04/19 02:55:08;;;;;;;7.18;1.70;;;8.60;99.90;;;;;;4954819;29;20097;-76
2022/04/19 02:57:33;;;;;;;7.68;1.60;;;8.60;99.90;;;;;;4955232;28;20023;-76
2022/04/19 03:00:00;;;;;;;2.35;1.20;;;8.60;99.90;;;;;;4954917;29;20035;-76
2022/04/19 03:02:25;;;;;;;5.35;1.45;;;8.60;99.90;;;;;;4954550;28;20035;-76
2022/04/19 03:04:51;;;;;;;6.72;1.67;;;8.60;99.90;;;;;;4955371;29;20023;-76
2022/04/19 03:07:17;;;;;;;5.43;1.40;;;8.60;99.90;;;;;;4955018;28;20037;-76
2022/04/19 03:09:43;;;;;;;5.35;1.50;;;8.70;99.90;;;;;;4954787;28;20655;-76
2022/04/19 03:12:14;;;;;;;6.40;1.63;;;8.60;99.90;;;;;;4954764;28;20054;-76
2022/04/19 03:14:41;;;;;;;9.90;1.77;;;8.60;99.90;;;;;;4925706;29;20482;-76
2022/04/19 03:17:07;;;;;;;3.70;1.70;;;8.50;99.90;;;;;;4954292;28;20297;-76
2022/04/19 03:19:33;;;;;;;2.83;1.30;;;8.40;99.90;;;;;;4954416;28;20464;-74
2022/04/19 03:21:59;;;;;;;3.63;1.38;;;8.40;99.90;;;;;;4954436;28;20027;-76
2022/04/19 03:29:52;;;;;;;4.93;1.42;;;8.40;99.90;;;;;;4954778;28;20027;-74
2022/04/19 03:32:19;;;;;;;5.75;1.70;;;8.50;99.90;;;;;;4954530;28;20086;-76
2022/04/19 03:34:46;;;;;;;3.42;1.67;;;8.40;99.90;;;;;;4954863;28;20470;-76
2022/04/19 03:37:12;;;;;;;6.45;1.80;;;8.30;99.90;;;;;;4953842;28;20027;-76
2022/04/19 03:39:38;;;;;;;5.47;1.45;;;8.30;99.90;;;;;;4954397;28;20042;-76
2022/04/19 03:42:08;;;;;;;7.95;1.52;;;8.40;99.90;;;;;;4954406;28;20032;-76
2022/04/19 03:44:34;;;;;;;5.97;1.85;;;8.40;99.90;;;;;;4954383;28;20027;-76
2022/04/19 03:47:09;;;;;;;6.55;1.40;;;8.40;99.90;;;;;;4953894;28;20038;-76
2022/04/19 03:49:39;;;;;;;5.68;1.90;;;8.40;99.90;;;;;;4953889;29;20031;-76
2022/04/19 03:52:06;;;;;;;2.55;1.60;;;8.40;99.90;;;;;;4954021;28;20027;-76
2022/04/19 03:54:34;;;;;;;4.55;1.40;;;8.30;99.90;;;;;;4953961;28;20039;-74
2022/04/19 03:57:01;;;;;;;1.48;1.15;;;8.20;99.90;;;;;;4953863;28;20032;-74
2022/04/19 03:59:27;;;;;;;4.07;1.52;;;8.00;99.90;;;;;;4953699;29;20110;-76
2022/04/19 04:01:52;;;;;;;5.55;1.67;;;7.90;99.90;;;;;;4953876;28;20106;-76
2022/04/19 04:04:18;;;;;;;3.05;1.58;;;7.80;99.90;;;;;;4953597;29;20122;-76
2022/04/19 04:06:44;;;;;;;4.50;1.60;;;7.80;99.90;;;;;;4953218;28;20086;-74
2022/04/19 04:09:09;;;;;;;8.13;1.90;;;7.70;99.90;;;;;;4953880;29;20388;-76
2022/04/19 04:11:35;;;;;;;7.22;1.75;;;7.70;99.90;;;;;;4953641;28;20028;-76
2022/04/19 04:14:00;;;;;;;9.05;2.15;;;7.60;99.90;;;;;;4952238;29;20057;-76
2022/04/19 04:16:27;;;;;;;10.60;1.85;;;7.50;99.90;;;;;;4954053;28;20027;-76
2022/04/19 04:18:52;;;;;;;7.30;1.77;;;7.30;99.90;;;;;;4953545;28;20035;-76
2022/04/19 04:21:18;;;;;;;5.15;1.80;;;7.20;99.90;;;;;;4952330;29;20035;-76
2022/04/19 04:23:44;;;;;;;8.60;2.05;;;7.10;99.90;;;;;;4953228;28;20019;-76
2022/04/19 04:26:09;;;;;;;2.55;1.75;;;7.10;99.90;;;;;;4953588;29;20027;-76
2022/04/19 04:28:35;;;;;;;4.53;1.80;;;7.00;99.90;;;;;;4953613;28;20027;-76
2022/04/19 04:31:01;;;;;;;6.28;2.05;;;7.00;99.90;;;;;;4952828;29;20030;-76
2022/04/19 04:33:26;;;;;;;2.80;1.70;;;6.90;99.90;;;;;;4953227;29;20519;-76
2022/04/19 04:35:52;;;;;;;5.75;1.77;;;6.80;99.90;;;;;;4952877;29;20019;-76
2022/04/19 04:38:18;;;;;;;4.82;1.83;;;6.60;99.90;;;;;;4953656;28;20461;-76
2022/04/19 04:40:43;;;;;;;3.08;1.90;;;6.50;99.90;;;;;;4952328;28;20019;-76
2022/04/19 04:43:09;;;;;;;4.78;1.88;;;6.60;99.90;;;;;;4953194;29;20058;-76
2022/04/19 04:45:35;;;;;;;4.13;2.22;;;6.60;99.90;;;;;;4952514;28;20557;-76
2022/04/19 04:50:44;;;;;;;4.97;1.92;;;6.70;99.90;;;;;;4952455;28;20066;-76
2022/04/19 04:53:10;;;;;;;5.07;2.05;;;6.90;99.90;;;;;;4952987;28;20051;-76
2022/04/19 04:55:37;;;;;;;4.07;2.00;;;6.90;99.90;;;;;;4953248;29;20039;-76
2022/04/19 04:58:03;;;;;;;5.43;2.30;;;7.10;99.90;;;;;;4952914;28;20027;-76
2022/04/19 05:00:29;;;;;;;5.85;1.90;;;7.10;99.90;;;;;;4953084;28;20039;-76
2022/04/19 05:02:55;;;;;;;5.07;2.15;;;7.30;99.90;;;;;;4953339;29;20026;-76
2022/04/19 05:05:22;;;;;;;5.05;2.17;;;7.40;99.90;;;;;;4952867;28;20146;-76
2022/04/19 05:07:47;;;;;;;4.95;1.63;;;7.50;99.90;;;;;;4952288;28;20031;-76
2022/04/19 05:10:14;;;;;;;3.47;2.20;;;7.70;99.90;;;;;;4952985;29;20035;-76
2022/04/19 05:12:40;;;;;;;6.00;1.95;;;7.80;99.90;;;;;;4952978;29;20531;-76
2022/04/19 05:15:06;;;;;;;6.28;2.65;;;7.90;99.90;;;;;;4951701;29;20058;-76
2022/04/19 05:17:32;;;;;;;6.95;1.98;;;8.00;99.90;;;;;;4952821;28;20074;-76
2022/04/19 05:19:58;;;;;;;6.25;2.00;;;8.00;99.90;;;;;;4953065;29;20385;-76
2022/04/19 05:22:23;;;;;;;5.95;2.42;;;8.00;99.90;;;;;;4952340;29;20020;-76
2022/04/19 05:24:49;;;;;;;4.93;2.30;;;8.10;99.90;;;;;;4952376;28;20074;-76
2022/04/19 05:27:15;;;;;;;7.38;2.55;;;8.10;99.90;;;;;;4952644;28;20070;-76
2022/04/19 05:29:41;;;;;;;6.70;2.50;;;8.20;99.90;;;;;;4952086;29;20027;-76
2022/04/19 05:32:07;;;;;;;4.28;2.30;;;8.20;99.90;;;;;;4950967;29;20027;-76
2022/04/19 05:34:33;;;;;;;6.57;2.53;;;8.20;99.90;;;;;;4952581;28;20114;-76
2022/04/19 05:36:59;;;;;;;3.80;2.10;;;8.20;99.90;;;;;;4952806;28;20110;-76
2022/04/19 05:39:25;;;;;;;5.03;2.30;;;8.20;99.90;;;;;;4952482;28;20039;-76
2022/04/19 05:41:51;;;;;;;5.15;2.22;;;8.30;99.90;;;;;;4952736;28;20107;-76
2022/04/19 05:44:16;;;;;;;5.82;2.03;;;8.40;99.90;;;;;;4952196;28;20630;-76
2022/04/19 05:46:42;;;;;;;3.85;2.10;;;8.50;99.90;;;;;;4952064;28;20020;-76
2022/04/19 05:49:08;;;;;;;2.67;1.85;;;8.50;99.90;;;;;;4952378;28;20395;-77
2022/04/19 05:51:34;;;;;;;6.13;1.85;;;8.60;99.90;;;;;;4949656;29;20055;-76
2022/04/19 05:54:00;;;;;;;10.40;2.22;;;8.60;99.90;;;;;;4949271;29;20563;-76
2022/04/19 05:56:26;;;;;;;5.35;2.20;;;8.70;99.90;;;;;;4949621;28;20106;-76
2022/04/19 05:58:52;;;;;;;3.15;1.70;;;8.70;99.90;;;;;;4949484;28;20102;-76
2022/04/19 06:01:18;;;;;;;4.20;1.85;;;8.80;99.90;;;;;;4950605;28;20524;-76
2022/04/19 06:06:29;;;;;;;2.92;1.60;;;8.90;99.90;;;;;;4955913;28;20117;-76
2022/04/19 06:08:55;;;;;;;6.18;2.30;;;8.90;99.90;;;;;;4938272;29;20023;-76
2022/04/19 06:11:21;;;;;;;6.20;2.30;;;9.00;99.90;;;;;;4955719;28;20555;-76
2022/04/19 06:13:47;;;;;;;3.45;1.83;;;9.10;99.90;;;;;;4956069;29;20114;-76
2022/04/19 06:16:13;;;;;;;5.88;1.90;;;9.20;99.90;;;;;;4955428;28;20095;-76
2022/04/19 06:18:39;;;;;;;6.90;1.85;;;9.30;99.90;;;;;;4955551;28;20027;-76
2022/04/19 06:21:05;;;;;;;4.63;1.83;;;9.50;99.90;;;;;;4955949;29;20023;-76
2022/04/19 06:23:34;;;;;;;4.05;2.05;;;9.60;99.90;;;;;;4955781;28;20019;-76
2022/04/19 06:26:00;;;;;;;10.57;3.28;;;9.80;99.90;;;;;;4955656;29;20026;-76
2022/04/19 06:28:27;;;;;;;5.70;1.75;;;9.80;99.90;;;;;;4955287;28;20385;-77
2022/04/19 06:30:53;;;;;;;6.65;1.88;;;9.90;99.90;;;;;;4955301;29;20033;-76
2022/04/19 06:33:18;;;;;;;6.32;2.10;;;10.00;99.90;;;;;;4955444;28;20371;-76
2022/04/19 06:35:44;;;;;;;4.50;1.98;;;10.10;99.90;;;;;;4955316;29;20046;-76
2022/04/19 06:38:10;;;;;;;4.07;2.22;;;10.20;99.90;;;;;;4956026;28;20087;-76
2022/04/19 06:40:36;;;;;;;8.30;2.38;;;10.30;99.90;;;;;;4940369;29;20065;-77
2022/04/19 06:43:02;;;;;;;5.60;2.28;;;10.40;99.90;;;;;;4951593;28;20106;-76
2022/04/19 06:45:28;;;;;;;9.63;2.00;;;10.40;99.90;;;;;;4955163;28;20472;-77
2022/04/19 06:48:02;;;;;;;4.82;2.03;;;10.50;99.90;;;;;;4954987;28;20059;-77
2022/04/19 06:50:29;;;;;;;13.13;2.05;;;10.70;99.90;;;;;;4954322;28;21263;-76
2022/04/19 06:52:55;;;;;;;5.15;2.13;;;10.80;99.90;;;;;;4954647;29;20023;-76
2022/04/19 06:55:21;;;;;;;7.65;2.00;;;11.00;99.70;;;;;;4954977;29;20122;-76
2022/04/19 06:57:47;;;;;;;13.05;2.50;;;11.10;99.60;;;;;;4954561;28;20120;-77
2022/04/19 07:00:14;;;;;;;6.03;2.28;;;11.30;99.60;;;;;;4954532;28;20028;-74
2022/04/19 07:02:40;;;;;;;5.30;2.25;;;11.50;98.50;;;;;;4954835;28;20011;-73
2022/04/19 07:05:06;;;;;;;5.53;2.05;;;11.60;99.20;;;;;;4955012;29;20826;-73
2022/04/19 07:07:32;;;;;;;4.70;2.05;;;11.70;97.80;;;;;;4954198;28;20089;-74
2022/04/19 07:09:58;;;;;;;6.65;2.30;;;11.70;97.20;;;;;;4955180;29;20074;-80
2022/04/19 07:12:24;;;;;;;6.88;2.13;;;11.70;97.60;;;;;;4948265;28;20535;-77
2022/04/19 07:14:50;;;;;;;4.10;2.15;;;11.80;96.90;;;;;;4931097;29;20122;-76
2022/04/19 07:17:16;;;;;;;7.70;2.47;;;11.80;96.40;;;;;;4948680;28;20032;-77
2022/04/19 07:28:02;;;;;;;4.63;2.25;;;12.00;96.30;;;;;;4947039;28;20031;-76
2022/04/19 07:30:29;;;;;;;2.75;2.10;;;12.20;96.50;;;;;;4953050;29;20027;-73
2022/04/19 07:32:58;;;;;;;5.93;2.22;;;12.40;96.50;;;;;;4947061;29;20031;-73
2022/04/19 07:35:24;;;;;;;7.35;2.80;;;12.50;95.80;;;;;;4953824;28;20035;-76
2022/04/19 07:37:51;;;;;;;7.72;2.67;;;12.60;95.60;;;;;;4932153;29;20023;-76
2022/04/19 07:40:17;;;;;;;7.90;3.30;;;12.70;95.60;;;;;;4920194;29;20055;-75
2022/04/19 07:42:42;;;;;;;6.38;2.63;;;12.50;94.20;;;;;;4953263;29;20046;-75
2022/04/19 07:45:09;;;;;;;8.30;2.92;;;12.60;95.10;;;;;;4953511;29;20027;-76
2022/04/19 07:47:35;;;;;;;8.27;3.13;;;12.50;94.40;;;;;;4953507;28;20042;-76
2022/04/19 07:50:02;;;;;;;7.93;2.70;;;12.60;94.30;;;;;;4953233;28;20034;-75
2022/04/19 07:52:27;;;;;;;6.88;2.53;;;12.70;93.60;;;;;;4953443;29;20022;-75
2022/04/19 07:54:53;;;;;;;4.40;3.03;;;12.80;94.40;;;;;;4953749;29;20035;-74
2022/04/19 07:57:20;;;;;;;4.88;2.28;;;12.80;93.10;;;;;;4953929;28;20470;-74
2022/04/19 07:59:46;;;;;;;6.18;2.75;;;12.80;94.80;;;;;;4948566;29;20023;-75
2022/04/19 08:02:13;;;;;;;6.10;2.47;;;13.00;95.10;;;;;;4942490;29;20019;-75
2022/04/19 08:04:39;;;;;;;5.03;2.30;;;13.20;94.40;;;;;;4953378;29;20155;-75
2022/04/19 08:07:06;;;;;;;6.00;2.92;;;13.40;94.40;;;;;;4952969;28;20039;-74
2022/04/19 08:09:32;;;;;;;6.10;2.65;;;13.70;92.90;;;;;;4949414;29;20015;-75
2022/04/19 08:11:58;;;;;;;6.85;2.40;;;13.90;92.80;;;;;;4941304;29;20519;-75
2022/04/19 08:14:24;;;;;;;5.93;2.92;;;14.00;91.60;;;;;;4944066;29;20027;-75
2022/04/19 08:16:50;;;;;;;6.35;2.90;;;14.10;92.00;;;;;;4950029;28;20015;-75
2022/04/19 08:19:16;;;;;;;8.15;3.50;;;14.30;90.80;;;;;;4951655;28;20030;-75
2022/04/19 08:21:42;;;;;;;6.55;2.90;;;14.40;90.20;;;;;;4950146;29;20046;-75
2022/04/19 08:24:07;;;;;;;4.40;2.78;;;14.40;90.10;;;;;;4949421;28;20023;-74
2022/04/19 08:26:33;;;;;;;8.32;3.30;;;14.40;91.60;;;;;;4943663;29;20028;-74
2022/04/19 08:28:59;;;;;;;4.55;2.90;;;14.50;90.00;;;;;;4932556;29;20032;-74
2022/04/19 08:31:26;;;;;;;5.72;3.13;;;14.40;91.60;;;;;;4932157;29;20362;-74
2022/04/19 08:33:52;;;;;;;9.43;3.17;;;14.70;87.60;;;;;;4932054;29;20111;-74
2022/04/19 08:36:20;;;;;;;6.68;3.28;;;14.70;87.50;;;;;;4933747;29;20167;-74
2022/04/19 08:38:47;;;;;;;9.45;3.15;;;14.60;85.00;;;;;;4931245;29;20023;-74
2022/04/19 08:41:23;;;;;;;9.98;3.97;;;14.50;90.80;;;;;;4929955;29;20163;-74
2022/04/19 08:43:52;;;;;;;11.18;4.65;;;14.60;86.70;;;;;;4934012;29;20020;-74
2022/04/19 08:46:18;;;;;;;9.88;4.28;;;14.60;89.80;;;;;;4927827;29;20024;-76
2022/04/19 08:48:45;;;;;;;12.15;4.30;;;14.80;89.60;;;;;;4942814;29;20050;-76
2022/04/19 08:51:12;;;;;;;7.57;3.88;;;15.00;87.00;;;;;;4944286;29;20484;-76
2022/04/19 08:59:07;;;;;;;9.75;4.05;;;15.20;83.80;;;;;;4939526;29;20062;-76
2022/04/19 09:01:35;;;;;;;13.20;4.20;;;15.40;83.10;;;;;;4947265;29;20592;-76
2022/04/19 09:04:04;;;;;;;9.40;4.78;;;15.70;86.10;;;;;;4952671;29;20028;-77
2022/04/19 09:06:56;;;;;;;13.98;4.53;;;15.80;79.30;;;;;;4943631;29;20023;-76
2022/04/19 09:09:34;;;;;;;8.10;4.05;;;15.80;80.80;;;;;;4952385;29;20024;-76
2022/04/19 09:12:13;;;;;;;6.05;4.18;;;16.10;79.30;;;;;;4937178;29;20067;-76
2022/04/19 09:15:06;;;;;;;8.63;4.57;;;16.70;80.60;;;;;;4950889;28;20023;-76
2022/04/19 09:17:36;;;;;;;8.40;4.40;;;17.30;81.40;;;;;;4947232;28;20023;-76
2022/04/19 09:20:15;;;;;;;6.65;4.50;;;18.00;77.40;;;;;;4952313;29;20024;-77
2022/04/19 09:22:44;;;;;;;7.45;4.40;;;18.30;70.00;;;;;;4951910;29;20031;-77
2022/04/19 09:25:17;;;;;;;13.95;4.38;;;18.30;71.30;;;;;;4952526;29;20023;-74
2022/04/19 09:27:43;;;;;;;8.70;4.18;;;18.30;71.90;;;;;;4948265;28;20019;-74
2022/04/19 09:30:18;;;;;;;9.02;4.57;;;18.30;70.80;;;;;;4952856;29;20482;-74
2022/04/19 09:33:14;;;;;;;8.50;3.88;;;18.20;68.40;;;;;;4952155;28;20027;-74
2022/04/19 09:35:47;;;;;;;9.43;4.35;;;18.30;71.80;;;;;;4940961;28;20038;-74
2022/04/19 09:38:13;;;;;;;9.70;4.50;;;18.90;71.10;;;;;;4952055;28;20031;-74
2022/04/19 09:40:47;;;;;;;7.38;4.00;;;19.40;66.70;;;;;;4950828;29;20037;-74
2022/04/19 09:43:20;;;;;;;10.18;5.22;;;19.40;64.80;;;;;;4952118;29;20027;-74
2022/04/19 09:45:51;;;;;;;8.65;4.57;;;19.50;63.90;;;;;;4952126;29;20020;-74
2022/04/19 09:48:22;;;;;;;9.48;4.95;;;19.00;65.50;;;;;;4939930;28;20114;-74
2022/04/19 09:50:54;;;;;;;8.38;4.88;;;19.10;65.10;;;;;;4951512;28;20023;-74
2022/04/19 09:53:21;;;;;;;11.55;4.90;;;19.10;63.70;;;;;;4944832;29;20038;-74
2022/04/19 09:55:52;;;;;;;10.70;4.93;;;19.40;66.10;;;;;;4949298;28;20035;-74
2022/04/19 09:58:18;;;;;;;8.80;4.57;;;19.80;63.90;;;;;;4941491;28;20043;-74
2022/04/19 10:00:46;;;;;;;10.18;4.97;;;19.70;66.20;;;;;;4949397;29;20484;-74
2022/04/19 10:08:44;;;;;;;8.43;4.38;;;20.10;62.80;;;;;;4946408;28;20111;-75
2022/04/19 10:11:10;;;;;;;7.78;4.57;;;20.90;62.00;;;;;;4952299;28;20023;-76
2022/04/19 10:13:39;;;;;;;11.90;4.85;;;20.50;59.20;;;;;;4951600;29;20139;-75
2022/04/19 10:16:17;;;;;;;8.15;4.75;;;21.00;60.90;;;;;;4951407;29;20505;-76
2022/04/19 10:18:46;;;;;;;8.52;5.18;;;21.10;60.00;;;;;;4951390;28;20023;-75
2022/04/19 10:21:18;;;;;;;14.80;4.78;;;21.30;59.20;;;;;;4947752;29;20090;-75
2022/04/19 10:23:45;;;;;;;;;;;21.30;57.70;;;;;;4952257;29;20016;-75
2022/04/19 10:26:18;;;;;;;9.70;4.53;;;21.50;58.80;;;;;;4951247;28;19957;-76
2022/04/19 10:28:48;;;;;;;9.23;4.97;;;21.30;58.50;;;;;;4951549;28;20023;-75
2022/04/19 10:31:24;;;;;;;10.63;5.25;;;21.10;60.50;;;;;;4949424;29;20028;-76
2022/04/19 10:33:53;;;;;;;8.73;4.28;;;21.60;59.80;;;;;;4950781;29;20042;-76
2022/04/19 10:36:33;;;;;;;10.88;4.90;;;21.70;60.60;;;;;;4939441;28;20054;-75
2022/04/19 10:39:14;;;;;;;8.32;4.95;;;21.80;60.90;;;;;;4940727;28;20023;-75
2022/04/19 10:41:52;;;;;;;7.80;4.50;;;22.90;57.40;;;;;;4945121;29;20061;-76
2022/04/19 10:44:36;;;;;;;11.40;4.70;;;23.10;54.00;;;;;;4951404;29;20034;-76
2022/04/19 10:47:05;;;;;;;11.48;4.70;;;23.00;53.00;;;;;;4948533;28;20035;-76
2022/04/19 10:49:36;;;;;;;9.23;4.35;;;23.60;53.80;;;;;;4946152;29;20023;-76
2022/04/19 10:52:36;;;;;;;10.20;4.72;;;22.50;51.80;;;;;;4955516;29;20391;-76
2022/04/19 10:55:14;;;;;;;9.75;4.65;;;22.00;57.00;;;;;;4954072;28;20035;-76
2022/04/19 11:00:34;;;;;;;6.93;4.18;;;21.60;56.70;;;;;;4955316;29;20038;-76
2022/04/19 11:03:01;;;;;;;9.73;4.40;;;21.20;55.40;;;;;;4955242;29;20055;-76
2022/04/19 11:05:43;;;;;;;6.95;4.15;;;19.90;61.50;;;;;;4955264;29;20019;-76
2022/04/19 11:08:30;;;;;;;10.27;4.30;;;19.80;64.70;;;;;;4946628;28;20563;-76
2022/04/19 11:10:55;;;;;;;8.55;3.47;;;20.40;61.00;;;;;;4955005;29;20027;-76
2022/04/19 11:13:31;;;;;;;5.80;3.78;;;21.80;58.90;;;;;;4954532;29;20082;-76
2022/04/19 11:16:07;;;;;;;10.70;3.92;;;23.10;54.70;;;;;;4954907;29;20078;-76
2022/04/19 11:18:34;;;;;;;6.97;3.85;;;22.70;51.90;;;;;;4954777;28;20025;-76
2022/04/19 11:21:12;;;;;;;7.68;3.30;;;22.10;51.20;;;;;;4953026;29;20031;-76
2022/04/19 11:23:43;;;;;;;8.15;3.53;;;21.50;51.60;;;;;;4954472;29;20027;-76
2022/04/19 11:26:33;;;;;;;4.60;3.00;;;21.10;52.80;;;;;;4954506;29;20110;-76
2022/04/19 11:29:08;;;;;;;6.53;3.53;;;20.70;55.50;;;;;;4952133;28;20052;-76
2022/04/19 11:31:43;;;;;;;6.05;3.72;;;20.60;57.40;;;;;;4953703;29;20023;-76
2022/04/19 11:34:16;;;;;;;8.27;3.60;;;20.40;57.00;;;;;;4954650;29;20421;-76
2022/04/19 11:36:43;;;;;;;7.05;3.63;;;20.30;57.60;;;;;;4954949;29;20035;-76
2022/04/19 11:47:47;;;;;;;9.80;3.60;;;21.00;57.10;;;;;;4954014;28;20617;-76
2022/04/19 11:50:32;;;;;;;9.65;4.30;;;21.10;56.30;;;;;;4954515;29;20472;-76
2022/04/19 11:52:58;;;;;;;8.43;3.90;;;20.70;56.70;;;;;;4945387;28;20043;-76
2022/04/19 11:55:27;;;;;;;11.63;4.28;;;19.80;57.40;;;;;;4954092;29;20039;-76
2022/04/19 11:58:06;;;;;;;8.50;4.03;;;19.40;60.20;;;;;;4953782;28;20019;-76
2022/04/19 12:00:32;;;;;;;8.13;4.43;;;19.50;60.20;;;;;;4951430;29;20046;-76
2022/04/19 12:02:58;;;;;;;7.97;4.07;;;19.50;59.90;;;;;;4950298;29;20380;-76
2022/04/19 12:05:28;;;;;;;7.65;4.03;;;19.90;61.80;;;;;;4937936;28;20026;-76
2022/04/19 12:07:55;;;;;;;7.90;4.30;;;20.00;58.90;;;;;;4950998;28;20113;-76
2022/04/19 12:10:21;;;;;;;9.63;4.05;;;20.00;58.80;;;;;;4953144;28;20129;-76
2022/04/19 12:12:49;;;;;;;8.25;4.53;;;20.20;61.10;;;;;;4953906;28;20020;-76
2022/04/19 12:15:41;;;;;;;10.40;4.55;;;20.10;59.00;;;;;;4953327;28;20039;-76
2022/04/19 12:18:07;;;;;;;10.93;5.45;;;19.10;62.60;;;;;;4953766;28;20030;-75
2022/04/19 12:20:46;;;;;;;11.60;6.43;;;19.00;65.40;;;;;;4953227;28;20467;-75
2022/04/19 12:23:21;;;;;;;11.57;5.75;;;18.60;65.20;;;;;;4952928;29;20015;-76
2022/04/19 12:26:04;;;;;;;12.23;6.40;;;18.30;66.60;;;;;;4953296;28;20099;-76
2022/04/19 12:28:44;;;;;;;16.42;6.22;;;17.90;67.70;;;;;;4953411;28;20020;-76
2022/04/19 12:31:32;;;;;;;10.48;6.13;;;17.60;70.40;;;;;;4953219;28;20611;-76
2022/04/19 12:33:59;;;;;;;13.00;6.55;;;17.40;72.60;;;;;;4953091;28;20052;-76
2022/04/19 12:36:26;;;;;;;10.80;6.03;;;17.40;73.60;;;;;;4953626;28;20031;-76
2022/04/19 12:39:04;;;;;;;10.82;6.25;;;18.90;70.00;;;;;;4953859;28;20083;-76
2022/04/19 12:41:35;;;;;;;13.40;5.70;;;22.00;58.30;;;;;;4953116;28;20020;-76
2022/04/19 12:44:02;;;;;;;11.52;6.00;;;23.70;55.00;;;;;;4953255;28;20031;-76
2022/04/19 12:46:27;;;;;;;8.88;5.38;;;24.70;47.70;;;;;;4953481;28;20019;-76
2022/04/19 12:48:53;;;;;;;10.38;5.13;;;27.30;47.40;;;;;;4953181;28;20034;-76
2022/04/19 12:51:26;;;;;;;10.00;4.60;;;28.40;39.70;;;;;;4947593;29;20574;-77
2022/04/19 12:54:06;;;;;;;9.88;4.78;;;28.40;39.70;;;;;;4942110;29;20067;-77
2022/04/19 12:56:33;;;;;;;15.07;5.63;;;29.80;37.90;;;;;;4926960;29;20040;-77
2022/04/19 12:58:59;;;;;;;8.63;4.70;;;30.10;37.60;;;;;;4945008;28;20074;-77
2022/04/19 13:01:26;;;;;;;8.63;5.15;;;31.10;40.20;;;;;;4944265;29;20404;-77
2022/04/19 13:03:51;;;;;;;9.43;5.22;;;30.50;32.20;;;;;;4951725;29;20447;-77
2022/04/19 13:14:31;;;;;;;11.20;5.72;;;28.40;36.90;;;;;;4940262;29;20090;-77
2022/04/19 13:16:57;;;;;;;10.18;5.72;;;26.40;38.90;;;;;;4950976;28;20520;-77
2022/04/19 13:19:23;;;;;;;10.52;5.80;;;25.30;41.90;;;;;;4952611;29;20109;-78
2022/04/19 13:21:48;;;;;;;13.13;5.70;;;25.00;42.40;;;;;;4947632;28;20007;-77
2022/04/19 13:24:14;;;;;;;9.65;5.63;;;24.40;44.20;;;;;;4943887;29;20094;-77
2022/04/19 13:26:40;;;;;;;9.35;5.95;;;23.10;46.50;;;;;;4936411;29;20114;-77
2022/04/19 13:29:06;;;;;;;10.20;6.05;;;23.20;47.50;;;;;;4950969;28;20038;-77
2022/04/19 13:31:32;;;;;;;6.38;3.10;;;22.50;52.40;;;;;;4945531;28;20035;-76
2022/04/19 13:33:57;;;;;;;5.70;2.50;;;21.50;49.40;;;;;;4951847;29;20068;-77
2022/04/19 13:36:24;;;;;;;5.90;2.00;;;20.50;50.80;;;;;;4952605;28;20027;-76
2022/04/19 13:38:50;;;;;;;6.07;2.05;;;19.50;54.40;;;;;;4951860;28;20058;-76
2022/04/19 13:41:15;;;;;;;4.47;2.33;;;18.90;55.60;;;;;;4940971;29;20059;-76
2022/04/19 13:43:41;;;;;;;5.28;2.30;;;18.30;60.40;;;;;;4947493;29;20488;-76
2022/04/19 13:46:07;;;;;;;3.42;2.30;;;17.90;60.80;;;;;;4951955;28;20388;-76
2022/04/19 13:48:34;;;;;;;5.88;2.15;;;17.50;60.70;;;;;;4944072;28;20386;-76
2022/04/19 13:51:00;;;;;;;7.35;1.90;;;17.50;63.30;;;;;;4950022;29;20029;-76